sensor_id;sensor_type;location;lat;lon;timestamp;P1;durP1;ratioP1;P2;durP2;ratioP2
29240;SDS011;16268;49.880;8.648;2023-04-30T00:00:28;13.40;;;9.40;;
29240;SDS011;16268;49.880;8.648;2023-04-30T00:02:53;12.70;;;9.63;;
29240;SDS011;16268;49.880;8.648;2023-04-30T00:05:19;11.70;;;9.15;;
29240;SDS011;16268;49.880;8.648;2023-04-30T00:07:44;12.30;;;9.35;;
29240;SDS011;16268;49.880;8.648;2023-04-30T00:10:10;11.35;;;9.20;;
29240;SDS011;16268;49.880;8.648;2023-04-30T00:12:36;12.27;;;9.95;;
29240;SDS011;16268;49.880;8.648;2023-04-30T00:15:02;11.85;;;9.02;;
29240;SDS011;16268;49.880;8.648;2023-04-30T00:17:28;14.40;;;10.10;;
29240;SDS011;16268;49.880;8.648;2023-04-30T00:19:53;11.32;;;9.27;;
29240;SDS011;16268;49.880;8.648;2023-04-30T00:22:19;12.88;;;9.82;;
29240;SDS011;16268;49.880;8.648;2023-04-30T00:24:45;14.60;;;9.85;;
29240;SDS011;16268;49.880;8.648;2023-04-30T00:27:11;13.82;;;10.45;;
29240;SDS011;16268;49.880;8.648;2023-04-30T00:29:36;15.95;;;10.60;;
29240;SDS011;16268;49.880;8.648;2023-04-30T00:32:02;15.38;;;10.70;;
29240;SDS011;16268;49.880;8.648;2023-04-30T00:34:28;13.13;;;10.23;;
29240;SDS011;16268;49.880;8.648;2023-04-30T00:36:54;14.27;;;10.40;;
29240;SDS011;16268;49.880;8.648;2023-04-30T00:39:19;24.55;;;15.73;;
29240;SDS011;16268;49.880;8.648;2023-04-30T00:41:46;15.90;;;10.65;;
29240;SDS011;16268;49.880;8.648;2023-04-30T00:44:12;14.80;;;10.25;;
29240;SDS011;16268;49.880;8.648;2023-04-30T00:46:37;13.57;;;10.05;;
29240;SDS011;16268;49.880;8.648;2023-04-30T00:49:03;15.68;;;10.77;;
29240;SDS011;16268;49.880;8.648;2023-04-30T00:51:30;13.48;;;10.75;;
29240;SDS011;16268;49.880;8.648;2023-04-30T00:53:57;13.65;;;10.32;;
29240;SDS011;16268;49.880;8.648;2023-04-30T00:56:26;14.13;;;10.95;;
29240;SDS011;16268;49.880;8.648;2023-04-30T00:58:54;14.60;;;11.02;;
29240;SDS011;16268;49.880;8.648;2023-04-30T01:01:24;15.25;;;10.70;;
29240;SDS011;16268;49.880;8.648;2023-04-30T01:03:52;14.35;;;10.95;;
29240;SDS011;16268;49.880;8.648;2023-04-30T01:06:19;16.98;;;11.32;;
29240;SDS011;16268;49.880;8.648;2023-04-30T01:08:45;13.95;;;11.27;;
29240;SDS011;16268;49.880;8.648;2023-04-30T01:11:30;14.38;;;11.48;;
29240;SDS011;16268;49.880;8.648;2023-04-30T01:17:15;15.50;;;11.02;;
29240;SDS011;16268;49.880;8.648;2023-04-30T01:20:06;13.52;;;10.90;;
29240;SDS011;16268;49.880;8.648;2023-04-30T01:28:01;12.68;;;10.90;;
29240;SDS011;16268;49.880;8.648;2023-04-30T01:30:30;16.25;;;11.90;;
29240;SDS011;16268;49.880;8.648;2023-04-30T01:32:57;15.35;;;12.23;;
29240;SDS011;16268;49.880;8.648;2023-04-30T01:38:15;14.50;;;11.05;;
29240;SDS011;16268;49.880;8.648;2023-04-30T01:40:57;14.85;;;11.52;;
29240;SDS011;16268;49.880;8.648;2023-04-30T01:46:30;15.20;;;11.63;;
29240;SDS011;16268;49.880;8.648;2023-04-30T01:51:47;15.77;;;11.75;;
29240;SDS011;16268;49.880;8.648;2023-04-30T01:57:06;17.27;;;12.05;;
29240;SDS011;16268;49.880;8.648;2023-04-30T01:59:37;16.77;;;12.80;;
29240;SDS011;16268;49.880;8.648;2023-04-30T02:02:06;16.98;;;12.70;;
29240;SDS011;16268;49.880;8.648;2023-04-30T02:04:32;16.83;;;12.77;;
29240;SDS011;16268;49.880;8.648;2023-04-30T02:06:58;16.10;;;12.05;;
29240;SDS011;16268;49.880;8.648;2023-04-30T02:09:24;15.23;;;12.25;;
29240;SDS011;16268;49.880;8.648;2023-04-30T02:11:49;16.60;;;12.23;;
29240;SDS011;16268;49.880;8.648;2023-04-30T02:14:15;17.40;;;12.13;;
29240;SDS011;16268;49.880;8.648;2023-04-30T02:16:41;17.33;;;13.23;;
29240;SDS011;16268;49.880;8.648;2023-04-30T02:19:06;16.75;;;13.15;;
29240;SDS011;16268;49.880;8.648;2023-04-30T02:21:32;17.42;;;12.43;;
29240;SDS011;16268;49.880;8.648;2023-04-30T02:23:58;16.55;;;13.35;;
29240;SDS011;16268;49.880;8.648;2023-04-30T02:26:24;18.63;;;12.73;;
29240;SDS011;16268;49.880;8.648;2023-04-30T02:28:50;17.98;;;13.68;;
29240;SDS011;16268;49.880;8.648;2023-04-30T02:31:16;15.60;;;13.43;;
29240;SDS011;16268;49.880;8.648;2023-04-30T02:33:42;19.85;;;13.10;;
29240;SDS011;16268;49.880;8.648;2023-04-30T02:36:07;16.27;;;13.27;;
29240;SDS011;16268;49.880;8.648;2023-04-30T02:38:33;15.57;;;13.50;;
29240;SDS011;16268;49.880;8.648;2023-04-30T02:40:58;18.60;;;14.00;;
29240;SDS011;16268;49.880;8.648;2023-04-30T02:43:24;20.70;;;14.48;;
29240;SDS011;16268;49.880;8.648;2023-04-30T02:45:49;18.55;;;14.15;;
29240;SDS011;16268;49.880;8.648;2023-04-30T02:48:15;17.55;;;13.90;;
29240;SDS011;16268;49.880;8.648;2023-04-30T02:50:41;19.65;;;14.50;;
29240;SDS011;16268;49.880;8.648;2023-04-30T02:53:07;20.50;;;14.93;;
29240;SDS011;16268;49.880;8.648;2023-04-30T02:55:32;18.38;;;14.52;;
29240;SDS011;16268;49.880;8.648;2023-04-30T02:57:58;19.52;;;15.15;;
29240;SDS011;16268;49.880;8.648;2023-04-30T03:00:23;20.70;;;14.85;;
29240;SDS011;16268;49.880;8.648;2023-04-30T03:02:49;18.95;;;14.38;;
29240;SDS011;16268;49.880;8.648;2023-04-30T03:05:14;18.83;;;14.18;;
29240;SDS011;16268;49.880;8.648;2023-04-30T03:07:40;18.95;;;15.43;;
29240;SDS011;16268;49.880;8.648;2023-04-30T03:10:06;20.52;;;14.68;;
29240;SDS011;16268;49.880;8.648;2023-04-30T03:12:32;20.05;;;15.43;;
29240;SDS011;16268;49.880;8.648;2023-04-30T03:14:58;19.90;;;15.25;;
29240;SDS011;16268;49.880;8.648;2023-04-30T03:17:23;18.70;;;14.57;;
29240;SDS011;16268;49.880;8.648;2023-04-30T03:19:49;19.83;;;14.35;;
29240;SDS011;16268;49.880;8.648;2023-04-30T03:22:15;18.50;;;14.60;;
29240;SDS011;16268;49.880;8.648;2023-04-30T03:24:43;22.10;;;15.15;;
29240;SDS011;16268;49.880;8.648;2023-04-30T03:27:09;20.23;;;14.85;;
29240;SDS011;16268;49.880;8.648;2023-04-30T03:29:35;18.70;;;14.73;;
29240;SDS011;16268;49.880;8.648;2023-04-30T03:32:00;21.00;;;15.38;;
29240;SDS011;16268;49.880;8.648;2023-04-30T03:34:26;21.58;;;15.35;;
29240;SDS011;16268;49.880;8.648;2023-04-30T03:36:51;19.17;;;15.02;;
29240;SDS011;16268;49.880;8.648;2023-04-30T03:39:17;21.02;;;15.82;;
29240;SDS011;16268;49.880;8.648;2023-04-30T03:41:42;20.88;;;15.43;;
29240;SDS011;16268;49.880;8.648;2023-04-30T03:44:08;20.25;;;15.50;;
29240;SDS011;16268;49.880;8.648;2023-04-30T03:46:42;21.15;;;15.68;;
29240;SDS011;16268;49.880;8.648;2023-04-30T03:49:08;20.40;;;15.65;;
29240;SDS011;16268;49.880;8.648;2023-04-30T03:51:33;19.60;;;15.38;;
29240;SDS011;16268;49.880;8.648;2023-04-30T03:54:03;22.98;;;17.08;;
29240;SDS011;16268;49.880;8.648;2023-04-30T03:56:30;20.40;;;15.82;;
29240;SDS011;16268;49.880;8.648;2023-04-30T03:58:56;23.05;;;16.13;;
29240;SDS011;16268;49.880;8.648;2023-04-30T04:01:22;20.38;;;15.82;;
29240;SDS011;16268;49.880;8.648;2023-04-30T04:03:47;21.92;;;16.45;;
29240;SDS011;16268;49.880;8.648;2023-04-30T04:06:13;21.55;;;15.93;;
29240;SDS011;16268;49.880;8.648;2023-04-30T04:08:38;21.73;;;16.92;;
29240;SDS011;16268;49.880;8.648;2023-04-30T04:11:07;22.27;;;15.57;;
29240;SDS011;16268;49.880;8.648;2023-04-30T04:13:33;20.60;;;15.32;;
29240;SDS011;16268;49.880;8.648;2023-04-30T04:15:59;22.75;;;16.00;;
29240;SDS011;16268;49.880;8.648;2023-04-30T04:18:24;20.75;;;15.48;;
29240;SDS011;16268;49.880;8.648;2023-04-30T04:20:50;22.15;;;15.98;;
29240;SDS011;16268;49.880;8.648;2023-04-30T04:23:15;20.05;;;15.40;;
29240;SDS011;16268;49.880;8.648;2023-04-30T04:25:41;18.95;;;15.48;;
29240;SDS011;16268;49.880;8.648;2023-04-30T04:28:08;23.30;;;16.35;;
29240;SDS011;16268;49.880;8.648;2023-04-30T04:30:34;19.50;;;15.63;;
29240;SDS011;16268;49.880;8.648;2023-04-30T04:33:00;22.48;;;16.35;;
29240;SDS011;16268;49.880;8.648;2023-04-30T04:35:26;20.50;;;15.48;;
29240;SDS011;16268;49.880;8.648;2023-04-30T04:37:51;21.77;;;16.27;;
29240;SDS011;16268;49.880;8.648;2023-04-30T04:40:17;20.02;;;16.17;;
29240;SDS011;16268;49.880;8.648;2023-04-30T04:42:43;21.48;;;15.88;;
29240;SDS011;16268;49.880;8.648;2023-04-30T04:45:08;21.23;;;15.48;;
29240;SDS011;16268;49.880;8.648;2023-04-30T04:47:35;21.02;;;15.68;;
29240;SDS011;16268;49.880;8.648;2023-04-30T04:50:01;22.50;;;16.50;;
29240;SDS011;16268;49.880;8.648;2023-04-30T04:52:27;20.52;;;16.17;;
29240;SDS011;16268;49.880;8.648;2023-04-30T04:54:52;20.33;;;15.77;;
29240;SDS011;16268;49.880;8.648;2023-04-30T04:57:18;19.65;;;15.82;;
29240;SDS011;16268;49.880;8.648;2023-04-30T04:59:44;21.48;;;15.48;;
29240;SDS011;16268;49.880;8.648;2023-04-30T05:02:09;20.23;;;15.65;;
29240;SDS011;16268;49.880;8.648;2023-04-30T05:04:35;19.95;;;15.82;;
29240;SDS011;16268;49.880;8.648;2023-04-30T05:07:01;20.35;;;15.70;;
29240;SDS011;16268;49.880;8.648;2023-04-30T05:09:27;22.38;;;15.50;;
29240;SDS011;16268;49.880;8.648;2023-04-30T05:11:52;18.55;;;13.57;;
29240;SDS011;16268;49.880;8.648;2023-04-30T05:14:18;20.80;;;15.25;;
29240;SDS011;16268;49.880;8.648;2023-04-30T05:16:44;18.50;;;14.40;;
29240;SDS011;16268;49.880;8.648;2023-04-30T05:19:10;21.25;;;14.50;;
29240;SDS011;16268;49.880;8.648;2023-04-30T05:21:36;17.90;;;14.60;;
29240;SDS011;16268;49.880;8.648;2023-04-30T05:24:01;18.77;;;14.40;;
29240;SDS011;16268;49.880;8.648;2023-04-30T05:26:27;19.92;;;13.95;;
29240;SDS011;16268;49.880;8.648;2023-04-30T05:28:53;18.85;;;13.80;;
29240;SDS011;16268;49.880;8.648;2023-04-30T05:31:18;17.50;;;13.45;;
29240;SDS011;16268;49.880;8.648;2023-04-30T05:33:44;19.42;;;13.75;;
29240;SDS011;16268;49.880;8.648;2023-04-30T05:36:10;21.25;;;14.35;;
29240;SDS011;16268;49.880;8.648;2023-04-30T05:38:35;18.45;;;13.68;;
29240;SDS011;16268;49.880;8.648;2023-04-30T05:41:01;18.45;;;13.93;;
29240;SDS011;16268;49.880;8.648;2023-04-30T05:43:27;17.85;;;13.30;;
29240;SDS011;16268;49.880;8.648;2023-04-30T05:45:52;17.42;;;12.35;;
29240;SDS011;16268;49.880;8.648;2023-04-30T05:48:18;18.80;;;12.85;;
29240;SDS011;16268;49.880;8.648;2023-04-30T05:50:43;15.73;;;12.38;;
29240;SDS011;16268;49.880;8.648;2023-04-30T05:53:09;18.95;;;13.35;;
29240;SDS011;16268;49.880;8.648;2023-04-30T05:55:34;16.63;;;12.35;;
29240;SDS011;16268;49.880;8.648;2023-04-30T05:58:00;19.02;;;12.68;;
29240;SDS011;16268;49.880;8.648;2023-04-30T06:00:25;17.27;;;12.15;;
29240;SDS011;16268;49.880;8.648;2023-04-30T06:02:51;15.55;;;11.90;;
29240;SDS011;16268;49.880;8.648;2023-04-30T06:05:17;15.52;;;11.20;;
29240;SDS011;16268;49.880;8.648;2023-04-30T06:07:43;15.82;;;10.90;;
29240;SDS011;16268;49.880;8.648;2023-04-30T06:10:08;15.48;;;11.40;;
29240;SDS011;16268;49.880;8.648;2023-04-30T06:12:34;15.27;;;10.40;;
29240;SDS011;16268;49.880;8.648;2023-04-30T06:15:00;12.75;;;9.70;;
29240;SDS011;16268;49.880;8.648;2023-04-30T06:17:26;12.95;;;9.35;;
29240;SDS011;16268;49.880;8.648;2023-04-30T06:19:51;11.68;;;8.80;;
29240;SDS011;16268;49.880;8.648;2023-04-30T06:22:17;14.13;;;9.27;;
29240;SDS011;16268;49.880;8.648;2023-04-30T06:24:42;11.98;;;8.55;;
29240;SDS011;16268;49.880;8.648;2023-04-30T06:27:08;11.85;;;8.00;;
29240;SDS011;16268;49.880;8.648;2023-04-30T06:29:33;12.32;;;7.80;;
29240;SDS011;16268;49.880;8.648;2023-04-30T06:31:59;14.07;;;8.43;;
29240;SDS011;16268;49.880;8.648;2023-04-30T06:34:25;11.18;;;7.65;;
29240;SDS011;16268;49.880;8.648;2023-04-30T06:36:50;12.32;;;7.90;;
29240;SDS011;16268;49.880;8.648;2023-04-30T06:39:16;12.00;;;7.43;;
29240;SDS011;16268;49.880;8.648;2023-04-30T06:41:42;10.48;;;7.45;;
29240;SDS011;16268;49.880;8.648;2023-04-30T06:44:07;11.60;;;7.03;;
29240;SDS011;16268;49.880;8.648;2023-04-30T06:46:33;10.38;;;7.43;;
29240;SDS011;16268;49.880;8.648;2023-04-30T06:48:59;9.90;;;6.93;;
29240;SDS011;16268;49.880;8.648;2023-04-30T06:51:25;10.55;;;6.57;;
29240;SDS011;16268;49.880;8.648;2023-04-30T06:53:50;8.00;;;6.25;;
29240;SDS011;16268;49.880;8.648;2023-04-30T06:56:16;11.05;;;6.30;;
29240;SDS011;16268;49.880;8.648;2023-04-30T06:58:42;10.00;;;5.80;;
29240;SDS011;16268;49.880;8.648;2023-04-30T07:01:07;7.97;;;5.50;;
29240;SDS011;16268;49.880;8.648;2023-04-30T07:03:33;8.45;;;5.38;;
29240;SDS011;16268;49.880;8.648;2023-04-30T07:05:59;8.50;;;5.22;;
29240;SDS011;16268;49.880;8.648;2023-04-30T07:08:25;9.15;;;5.00;;
29240;SDS011;16268;49.880;8.648;2023-04-30T07:10:50;8.30;;;4.85;;
29240;SDS011;16268;49.880;8.648;2023-04-30T07:13:16;7.40;;;4.70;;
29240;SDS011;16268;49.880;8.648;2023-04-30T07:15:42;9.15;;;4.55;;
29240;SDS011;16268;49.880;8.648;2023-04-30T07:18:08;7.63;;;4.25;;
29240;SDS011;16268;49.880;8.648;2023-04-30T07:20:34;6.22;;;3.55;;
29240;SDS011;16268;49.880;8.648;2023-04-30T07:22:59;6.93;;;3.50;;
29240;SDS011;16268;49.880;8.648;2023-04-30T07:25:25;6.53;;;3.50;;
29240;SDS011;16268;49.880;8.648;2023-04-30T07:27:51;6.03;;;3.47;;
29240;SDS011;16268;49.880;8.648;2023-04-30T07:30:19;7.68;;;3.63;;
29240;SDS011;16268;49.880;8.648;2023-04-30T07:32:46;6.72;;;3.50;;
29240;SDS011;16268;49.880;8.648;2023-04-30T07:35:11;5.22;;;3.08;;
29240;SDS011;16268;49.880;8.648;2023-04-30T07:37:38;7.45;;;3.50;;
29240;SDS011;16268;49.880;8.648;2023-04-30T07:40:04;6.85;;;3.30;;
29240;SDS011;16268;49.880;8.648;2023-04-30T07:42:31;5.50;;;3.60;;
29240;SDS011;16268;49.880;8.648;2023-04-30T07:44:57;5.38;;;3.08;;
29240;SDS011;16268;49.880;8.648;2023-04-30T07:47:23;4.82;;;3.08;;
29240;SDS011;16268;49.880;8.648;2023-04-30T07:49:49;6.22;;;3.03;;
29240;SDS011;16268;49.880;8.648;2023-04-30T07:52:15;5.80;;;3.05;;
29240;SDS011;16268;49.880;8.648;2023-04-30T07:54:40;6.18;;;2.97;;
29240;SDS011;16268;49.880;8.648;2023-04-30T07:57:06;5.80;;;3.22;;
29240;SDS011;16268;49.880;8.648;2023-04-30T07:59:32;7.60;;;3.55;;
29240;SDS011;16268;49.880;8.648;2023-04-30T08:01:57;5.20;;;2.72;;
29240;SDS011;16268;49.880;8.648;2023-04-30T08:04:23;8.30;;;3.20;;
29240;SDS011;16268;49.880;8.648;2023-04-30T08:06:49;5.55;;;2.88;;
29240;SDS011;16268;49.880;8.648;2023-04-30T08:09:14;5.25;;;2.80;;
29240;SDS011;16268;49.880;8.648;2023-04-30T08:11:40;4.20;;;2.60;;
29240;SDS011;16268;49.880;8.648;2023-04-30T08:14:06;3.55;;;1.88;;
29240;SDS011;16268;49.880;8.648;2023-04-30T08:16:31;5.60;;;2.30;;
29240;SDS011;16268;49.880;8.648;2023-04-30T08:18:57;5.43;;;2.63;;
29240;SDS011;16268;49.880;8.648;2023-04-30T08:21:23;4.53;;;2.55;;
29240;SDS011;16268;49.880;8.648;2023-04-30T08:23:49;4.13;;;2.13;;
29240;SDS011;16268;49.880;8.648;2023-04-30T08:26:14;5.53;;;2.47;;
29240;SDS011;16268;49.880;8.648;2023-04-30T08:28:40;3.90;;;1.90;;
29240;SDS011;16268;49.880;8.648;2023-04-30T08:31:05;4.38;;;2.10;;
29240;SDS011;16268;49.880;8.648;2023-04-30T08:33:31;4.28;;;2.10;;
29240;SDS011;16268;49.880;8.648;2023-04-30T08:35:57;3.28;;;1.60;;
29240;SDS011;16268;49.880;8.648;2023-04-30T08:38:23;4.13;;;1.80;;
29240;SDS011;16268;49.880;8.648;2023-04-30T08:40:51;4.95;;;1.55;;
29240;SDS011;16268;49.880;8.648;2023-04-30T08:43:27;4.78;;;1.92;;
29240;SDS011;16268;49.880;8.648;2023-04-30T08:45:52;5.07;;;1.70;;
29240;SDS011;16268;49.880;8.648;2023-04-30T08:48:18;3.67;;;1.60;;
29240;SDS011;16268;49.880;8.648;2023-04-30T08:50:45;4.40;;;1.73;;
29240;SDS011;16268;49.880;8.648;2023-04-30T08:53:10;3.38;;;1.63;;
29240;SDS011;16268;49.880;8.648;2023-04-30T08:55:39;3.08;;;1.50;;
29240;SDS011;16268;49.880;8.648;2023-04-30T08:58:05;3.80;;;1.60;;
29240;SDS011;16268;49.880;8.648;2023-04-30T09:00:35;2.85;;;1.42;;
29240;SDS011;16268;49.880;8.648;2023-04-30T09:03:02;2.88;;;1.48;;
29240;SDS011;16268;49.880;8.648;2023-04-30T09:05:28;3.92;;;1.92;;
29240;SDS011;16268;49.880;8.648;2023-04-30T09:07:54;2.67;;;1.40;;
29240;SDS011;16268;49.880;8.648;2023-04-30T09:10:21;3.72;;;1.30;;
29240;SDS011;16268;49.880;8.648;2023-04-30T09:15:32;3.05;;;1.10;;
29240;SDS011;16268;49.880;8.648;2023-04-30T09:18:12;2.53;;;1.10;;
29240;SDS011;16268;49.880;8.648;2023-04-30T09:23:19;2.47;;;1.20;;
29240;SDS011;16268;49.880;8.648;2023-04-30T09:25:44;5.45;;;1.10;;
29240;SDS011;16268;49.880;8.648;2023-04-30T09:28:11;4.18;;;1.00;;
29240;SDS011;16268;49.880;8.648;2023-04-30T09:30:38;2.60;;;0.93;;
29240;SDS011;16268;49.880;8.648;2023-04-30T09:33:06;3.40;;;1.20;;
29240;SDS011;16268;49.880;8.648;2023-04-30T09:35:36;2.92;;;1.05;;
29240;SDS011;16268;49.880;8.648;2023-04-30T09:38:24;2.47;;;1.20;;
29240;SDS011;16268;49.880;8.648;2023-04-30T09:40:50;3.10;;;1.10;;
29240;SDS011;16268;49.880;8.648;2023-04-30T09:43:16;3.15;;;1.15;;
29240;SDS011;16268;49.880;8.648;2023-04-30T09:45:45;3.17;;;1.10;;
29240;SDS011;16268;49.880;8.648;2023-04-30T09:48:16;2.13;;;1.02;;
29240;SDS011;16268;49.880;8.648;2023-04-30T09:50:42;3.20;;;0.90;;
29240;SDS011;16268;49.880;8.648;2023-04-30T09:53:12;1.63;;;0.80;;
29240;SDS011;16268;49.880;8.648;2023-04-30T09:55:40;2.20;;;0.88;;
29240;SDS011;16268;49.880;8.648;2023-04-30T09:58:08;4.28;;;1.10;;
29240;SDS011;16268;49.880;8.648;2023-04-30T10:00:35;1.83;;;0.90;;
29240;SDS011;16268;49.880;8.648;2023-04-30T10:05:35;2.90;;;0.80;;
29240;SDS011;16268;49.880;8.648;2023-04-30T10:08:03;1.80;;;0.80;;
29240;SDS011;16268;49.880;8.648;2023-04-30T10:10:35;3.00;;;1.10;;
29240;SDS011;16268;49.880;8.648;2023-04-30T10:13:04;2.58;;;0.90;;
29240;SDS011;16268;49.880;8.648;2023-04-30T10:15:37;2.30;;;0.95;;
29240;SDS011;16268;49.880;8.648;2023-04-30T10:18:10;3.47;;;1.27;;
29240;SDS011;16268;49.880;8.648;2023-04-30T10:20:42;1.73;;;0.77;;
29240;SDS011;16268;49.880;8.648;2023-04-30T10:23:12;2.38;;;1.00;;
29240;SDS011;16268;49.880;8.648;2023-04-30T10:25:39;2.72;;;1.20;;
29240;SDS011;16268;49.880;8.648;2023-04-30T10:28:06;3.08;;;0.93;;
29240;SDS011;16268;49.880;8.648;2023-04-30T10:30:32;3.15;;;1.55;;
29240;SDS011;16268;49.880;8.648;2023-04-30T10:35:25;1.35;;;0.60;;
29240;SDS011;16268;49.880;8.648;2023-04-30T10:38:36;1.50;;;0.70;;
29240;SDS011;16268;49.880;8.648;2023-04-30T10:40:47;2.50;;;1.00;;
29240;SDS011;16268;49.880;8.648;2023-04-30T10:43:13;3.38;;;0.70;;
29240;SDS011;16268;49.880;8.648;2023-04-30T10:45:42;1.80;;;0.60;;
29240;SDS011;16268;49.880;8.648;2023-04-30T10:48:08;1.30;;;0.60;;
29240;SDS011;16268;49.880;8.648;2023-04-30T10:50:43;3.30;;;1.02;;
29240;SDS011;16268;49.880;8.648;2023-04-30T10:53:15;3.30;;;0.80;;
29240;SDS011;16268;49.880;8.648;2023-04-30T10:55:44;3.55;;;1.10;;
29240;SDS011;16268;49.880;8.648;2023-04-30T10:58:36;3.75;;;1.30;;
29240;SDS011;16268;49.880;8.648;2023-04-30T11:01:13;2.03;;;0.85;;
29240;SDS011;16268;49.880;8.648;2023-04-30T11:03:41;1.20;;;0.50;;
29240;SDS011;16268;49.880;8.648;2023-04-30T11:06:08;2.47;;;1.00;;
29240;SDS011;16268;49.880;8.648;2023-04-30T11:08:42;2.35;;;0.95;;
29240;SDS011;16268;49.880;8.648;2023-04-30T11:11:18;2.78;;;0.98;;
29240;SDS011;16268;49.880;8.648;2023-04-30T11:13:47;2.22;;;0.82;;
29240;SDS011;16268;49.880;8.648;2023-04-30T11:16:27;2.10;;;0.77;;
29240;SDS011;16268;49.880;8.648;2023-04-30T11:19:05;1.58;;;0.80;;
29240;SDS011;16268;49.880;8.648;2023-04-30T11:21:41;0.73;;;0.57;;
29240;SDS011;16268;49.880;8.648;2023-04-30T11:27:24;1.75;;;0.82;;
29240;SDS011;16268;49.880;8.648;2023-04-30T11:29:54;3.20;;;1.38;;
29240;SDS011;16268;49.880;8.648;2023-04-30T11:32:21;1.27;;;0.60;;
29240;SDS011;16268;49.880;8.648;2023-04-30T11:34:48;2.25;;;0.85;;
29240;SDS011;16268;49.880;8.648;2023-04-30T11:37:28;2.22;;;0.70;;
29240;SDS011;16268;49.880;8.648;2023-04-30T11:39:55;1.65;;;0.80;;
29240;SDS011;16268;49.880;8.648;2023-04-30T11:42:22;1.58;;;0.80;;
29240;SDS011;16268;49.880;8.648;2023-04-30T11:44:48;3.70;;;0.90;;
29240;SDS011;16268;49.880;8.648;2023-04-30T11:47:13;3.65;;;0.75;;
29240;SDS011;16268;49.880;8.648;2023-04-30T11:49:39;2.03;;;0.90;;
29240;SDS011;16268;49.880;8.648;2023-04-30T11:52:06;1.88;;;0.68;;
29240;SDS011;16268;49.880;8.648;2023-04-30T11:54:36;2.08;;;0.70;;
29240;SDS011;16268;49.880;8.648;2023-04-30T11:57:02;3.13;;;0.80;;
29240;SDS011;16268;49.880;8.648;2023-04-30T11:59:31;1.70;;;0.70;;
29240;SDS011;16268;49.880;8.648;2023-04-30T12:02:04;1.88;;;0.60;;
29240;SDS011;16268;49.880;8.648;2023-04-30T12:04:30;1.88;;;0.55;;
29240;SDS011;16268;49.880;8.648;2023-04-30T12:06:55;0.90;;;0.50;;
29240;SDS011;16268;49.880;8.648;2023-04-30T12:09:22;1.50;;;0.50;;
29240;SDS011;16268;49.880;8.648;2023-04-30T12:11:48;1.42;;;0.50;;
29240;SDS011;16268;49.880;8.648;2023-04-30T12:14:13;1.98;;;0.60;;
29240;SDS011;16268;49.880;8.648;2023-04-30T12:16:42;1.58;;;0.45;;
29240;SDS011;16268;49.880;8.648;2023-04-30T12:19:12;1.08;;;0.60;;
29240;SDS011;16268;49.880;8.648;2023-04-30T12:21:38;2.53;;;0.60;;
29240;SDS011;16268;49.880;8.648;2023-04-30T12:24:05;1.08;;;0.32;;
29240;SDS011;16268;49.880;8.648;2023-04-30T12:26:39;1.05;;;0.38;;
29240;SDS011;16268;49.880;8.648;2023-04-30T12:29:09;1.08;;;0.57;;
29240;SDS011;16268;49.880;8.648;2023-04-30T12:31:39;1.38;;;0.50;;
29240;SDS011;16268;49.880;8.648;2023-04-30T12:34:06;3.92;;;0.60;;
29240;SDS011;16268;49.880;8.648;2023-04-30T12:36:32;1.10;;;0.45;;
29240;SDS011;16268;49.880;8.648;2023-04-30T12:39:10;1.20;;;0.50;;
29240;SDS011;16268;49.880;8.648;2023-04-30T12:41:44;1.42;;;0.65;;
29240;SDS011;16268;49.880;8.648;2023-04-30T12:46:50;1.63;;;0.50;;
29240;SDS011;16268;49.880;8.648;2023-04-30T12:49:28;2.25;;;0.60;;
29240;SDS011;16268;49.880;8.648;2023-04-30T12:51:58;1.55;;;0.40;;
29240;SDS011;16268;49.880;8.648;2023-04-30T12:54:29;2.08;;;0.60;;
29240;SDS011;16268;49.880;8.648;2023-04-30T12:57:00;1.67;;;0.50;;
29240;SDS011;16268;49.880;8.648;2023-04-30T12:59:28;1.20;;;0.50;;
29240;SDS011;16268;49.880;8.648;2023-04-30T13:02:10;1.23;;;0.57;;
29240;SDS011;16268;49.880;8.648;2023-04-30T13:04:37;1.65;;;0.40;;
29240;SDS011;16268;49.880;8.648;2023-04-30T13:07:04;0.88;;;0.40;;
29240;SDS011;16268;49.880;8.648;2023-04-30T13:09:31;0.88;;;0.40;;
29240;SDS011;16268;49.880;8.648;2023-04-30T13:11:57;0.70;;;0.47;;
29240;SDS011;16268;49.880;8.648;2023-04-30T13:14:23;0.80;;;0.50;;
29240;SDS011;16268;49.880;8.648;2023-04-30T13:16:49;3.20;;;0.55;;
29240;SDS011;16268;49.880;8.648;2023-04-30T13:19:14;1.30;;;0.55;;
29240;SDS011;16268;49.880;8.648;2023-04-30T13:21:40;1.08;;;0.57;;
29240;SDS011;16268;49.880;8.648;2023-04-30T13:24:05;1.17;;;0.47;;
29240;SDS011;16268;49.880;8.648;2023-04-30T13:26:31;0.98;;;0.40;;
29240;SDS011;16268;49.880;8.648;2023-04-30T13:28:56;1.33;;;0.60;;
29240;SDS011;16268;49.880;8.648;2023-04-30T13:31:22;0.82;;;0.45;;
29240;SDS011;16268;49.880;8.648;2023-04-30T13:33:48;0.95;;;0.50;;
29240;SDS011;16268;49.880;8.648;2023-04-30T13:36:13;1.60;;;0.70;;
29240;SDS011;16268;49.880;8.648;2023-04-30T13:38:39;1.48;;;0.60;;
29240;SDS011;16268;49.880;8.648;2023-04-30T13:41:05;1.27;;;0.50;;
29240;SDS011;16268;49.880;8.648;2023-04-30T13:43:31;1.98;;;0.52;;
29240;SDS011;16268;49.880;8.648;2023-04-30T13:45:57;1.65;;;0.55;;
29240;SDS011;16268;49.880;8.648;2023-04-30T13:48:23;2.22;;;0.60;;
29240;SDS011;16268;49.880;8.648;2023-04-30T13:50:50;2.45;;;0.60;;
29240;SDS011;16268;49.880;8.648;2023-04-30T13:53:16;0.88;;;0.47;;
29240;SDS011;16268;49.880;8.648;2023-04-30T13:55:41;1.05;;;0.50;;
29240;SDS011;16268;49.880;8.648;2023-04-30T13:58:07;1.70;;;0.50;;
29240;SDS011;16268;49.880;8.648;2023-04-30T14:00:33;2.15;;;0.52;;
29240;SDS011;16268;49.880;8.648;2023-04-30T14:02:58;1.13;;;0.50;;
29240;SDS011;16268;49.880;8.648;2023-04-30T14:05:24;1.30;;;0.50;;
29240;SDS011;16268;49.880;8.648;2023-04-30T14:07:50;1.85;;;0.50;;
29240;SDS011;16268;49.880;8.648;2023-04-30T14:10:15;1.05;;;0.50;;
29240;SDS011;16268;49.880;8.648;2023-04-30T14:12:41;1.52;;;0.60;;
29240;SDS011;16268;49.880;8.648;2023-04-30T14:15:06;1.27;;;0.50;;
29240;SDS011;16268;49.880;8.648;2023-04-30T14:17:32;1.13;;;0.50;;
29240;SDS011;16268;49.880;8.648;2023-04-30T14:19:58;1.48;;;0.60;;
29240;SDS011;16268;49.880;8.648;2023-04-30T14:22:23;1.55;;;0.50;;
29240;SDS011;16268;49.880;8.648;2023-04-30T14:24:50;1.20;;;0.50;;
29240;SDS011;16268;49.880;8.648;2023-04-30T14:27:16;3.22;;;0.82;;
29240;SDS011;16268;49.880;8.648;2023-04-30T14:29:42;0.75;;;0.43;;
29240;SDS011;16268;49.880;8.648;2023-04-30T14:32:07;0.73;;;0.40;;
29240;SDS011;16268;49.880;8.648;2023-04-30T14:34:33;1.27;;;0.50;;
29240;SDS011;16268;49.880;8.648;2023-04-30T14:37:00;2.28;;;0.50;;
29240;SDS011;16268;49.880;8.648;2023-04-30T14:39:27;2.78;;;0.70;;
29240;SDS011;16268;49.880;8.648;2023-04-30T14:41:52;1.67;;;0.57;;
29240;SDS011;16268;49.880;8.648;2023-04-30T14:44:20;1.88;;;0.32;;
29240;SDS011;16268;49.880;8.648;2023-04-30T14:46:47;0.77;;;0.30;;
29240;SDS011;16268;49.880;8.648;2023-04-30T14:49:13;1.05;;;0.55;;
29240;SDS011;16268;49.880;8.648;2023-04-30T14:51:38;0.90;;;0.52;;
29240;SDS011;16268;49.880;8.648;2023-04-30T14:54:04;1.27;;;0.40;;
29240;SDS011;16268;49.880;8.648;2023-04-30T14:56:30;2.28;;;0.50;;
29240;SDS011;16268;49.880;8.648;2023-04-30T14:58:55;1.33;;;0.60;;
29240;SDS011;16268;49.880;8.648;2023-04-30T15:01:22;1.88;;;0.70;;
29240;SDS011;16268;49.880;8.648;2023-04-30T15:03:47;1.45;;;0.47;;
29240;SDS011;16268;49.880;8.648;2023-04-30T15:06:13;1.98;;;0.50;;
29240;SDS011;16268;49.880;8.648;2023-04-30T15:08:39;1.50;;;0.60;;
29240;SDS011;16268;49.880;8.648;2023-04-30T15:11:05;2.30;;;0.50;;